Time;durP1;ratioP1;P1;durP2;ratioP2;P2;SDS_P1;SDS_P2;PMS_P1;PMS_P2;Temp;Humidity;BMP_temperature;BMP_pressure;BME280_temperature;BME280_humidity;BME280_pressure;Samples;Min_cycle;Max_cycle;Signal;HPM_P1;HPM_P2
2023/03/02 00:00:40;;;;;;;21.10;10.17;;;3.10;99.90;;;;;;5193342;22;20225;-95
2023/03/02 00:02:42;;;;;;;24.33;10.03;;;3.10;99.90;;;;;;5193376;22;20458;-92
2023/03/02 00:04:49;;;;;;;20.90;10.77;;;3.10;99.90;;;;;;5193535;22;20150;-94
2023/03/02 00:06:53;;;;;;;17.23;10.00;;;3.30;99.90;;;;;;5194568;22;20165;-94
2023/03/02 00:08:55;;;;;;;21.07;11.07;;;3.20;99.90;;;;;;5169860;23;20155;-95
2023/03/02 00:10:56;;;;;;;20.23;10.40;;;3.10;99.90;;;;;;5169902;22;20171;-92
2023/03/02 00:12:58;;;;;;;22.27;10.30;;;3.30;99.90;;;;;;5195035;22;20181;-94
2023/03/02 00:14:59;;;;;;;18.60;10.50;;;3.30;99.90;;;;;;5169972;22;20158;-91
2023/03/02 00:17:01;;;;;;;20.30;10.30;;;3.20;99.90;;;;;;5194956;22;20158;-92
2023/03/02 00:19:02;;;;;;;17.53;9.93;;;3.10;99.90;;;;;;5169960;23;20594;-92
2023/03/02 00:21:03;;;;;;;23.73;10.27;;;3.00;99.90;;;;;;5169671;23;20171;-93
2023/03/02 00:23:04;;;;;;;18.60;10.03;;;2.80;99.90;;;;;;5169837;23;20237;-92
2023/03/02 00:25:05;;;;;;;16.67;9.83;;;2.80;99.90;;;;;;5169946;23;20190;-92
2023/03/02 00:27:06;;;;;;;23.47;9.70;;;2.70;99.90;;;;;;5195164;22;20149;-90
2023/03/02 00:29:07;;;;;;;22.20;10.30;;;2.70;99.90;;;;;;5195168;22;20158;-92
2023/03/02 00:31:08;;;;;;;23.83;10.57;;;2.70;99.90;;;;;;5169626;23;20705;-92
2023/03/02 00:33:09;;;;;;;20.97;10.13;;;2.70;99.90;;;;;;5194914;22;20186;-92
2023/03/02 00:35:10;;;;;;;19.67;10.17;;;2.70;99.90;;;;;;5169882;23;20234;-92
2023/03/02 00:37:11;;;;;;;19.17;10.30;;;2.60;99.90;;;;;;5169886;23;20572;-92
2023/03/02 00:39:12;;;;;;;17.43;9.87;;;2.60;99.90;;;;;;5169739;22;20162;-93
2023/03/02 00:41:14;;;;;;;17.63;9.43;;;2.60;99.90;;;;;;5194542;22;20289;-93
2023/03/02 00:43:16;;;;;;;20.73;10.20;;;2.60;99.90;;;;;;5194704;22;20170;-92
2023/03/02 00:45:17;;;;;;;20.43;10.77;;;2.40;99.90;;;;;;5194772;22;20181;-93
2023/03/02 00:47:18;;;;;;;23.33;10.87;;;2.50;99.90;;;;;;5195108;22;20178;-92
2023/03/02 00:49:19;;;;;;;18.10;9.33;;;2.60;99.90;;;;;;5169775;23;20155;-92
2023/03/02 00:51:20;;;;;;;22.33;9.40;;;2.50;99.90;;;;;;5169467;23;20198;-92
2023/03/02 00:53:20;;;;;;;20.73;9.93;;;2.50;99.90;;;;;;5195125;22;20217;-92
2023/03/02 00:55:21;;;;;;;18.90;9.77;;;2.60;99.90;;;;;;5169366;23;20612;-92
2023/03/02 00:57:23;;;;;;;15.53;8.73;;;2.50;99.90;;;;;;5169626;23;20151;-94
2023/03/02 00:59:27;;;;;;;17.83;9.10;;;2.50;99.90;;;;;;5169317;23;20206;-92
2023/03/02 01:01:57;;;;;;;17.53;9.13;;;2.40;99.90;;;;;;5174743;22;20221;-92
2023/03/02 01:03:59;;;;;;;19.73;9.40;;;2.30;99.90;;;;;;5169763;22;20184;-92
2023/03/02 01:06:00;;;;;;;18.27;9.50;;;2.30;99.90;;;;;;5169133;23;20190;-93
2023/03/02 01:08:01;;;;;;;19.83;9.73;;;2.30;99.90;;;;;;5169287;23;20545;-92
2023/03/02 01:10:02;;;;;;;18.93;9.60;;;2.30;99.90;;;;;;5169258;22;20151;-95
2023/03/02 01:12:08;;;;;;;17.90;8.93;;;2.30;99.90;;;;;;5169521;22;20172;-91
2023/03/02 01:14:08;;;;;;;17.10;9.53;;;2.40;99.90;;;;;;5169543;23;20155;-91
2023/03/02 01:16:10;;;;;;;19.37;8.67;;;2.40;99.90;;;;;;5194879;22;20182;-92
2023/03/02 01:18:11;;;;;;;16.53;8.93;;;2.40;99.90;;;;;;5169590;23;20160;-92
2023/03/02 01:20:13;;;;;;;16.53;8.63;;;2.40;99.90;;;;;;5169758;23;20167;-92
2023/03/02 01:22:14;;;;;;;21.20;8.53;;;2.40;99.90;;;;;;5220840;22;20177;-92
2023/03/02 01:24:15;;;;;;;18.20;9.27;;;2.40;99.90;;;;;;5194717;22;20154;-94
2023/03/02 01:26:16;;;;;;;19.17;8.53;;;2.30;99.90;;;;;;5169062;23;20182;-94
2023/03/02 01:28:16;;;;;;;17.83;9.40;;;2.30;99.90;;;;;;5194825;22;20165;-93
2023/03/02 01:30:17;;;;;;;17.73;9.30;;;2.30;99.90;;;;;;5169562;22;20162;-93
2023/03/02 01:32:18;;;;;;;15.23;8.70;;;2.30;99.90;;;;;;5169530;23;20183;-95
2023/03/02 01:34:20;;;;;;;17.97;8.63;;;2.30;99.90;;;;;;5194944;22;20496;-92
2023/03/02 01:36:22;;;;;;;20.00;9.03;;;2.30;99.90;;;;;;5169785;22;20200;-91
2023/03/02 01:38:23;;;;;;;16.70;9.03;;;2.30;99.90;;;;;;5195415;22;20209;-92
2023/03/02 01:40:24;;;;;;;20.63;8.93;;;2.30;99.90;;;;;;5169615;22;20166;-92
2023/03/02 01:42:25;;;;;;;17.00;9.17;;;2.30;99.90;;;;;;5169279;23;20593;-92
2023/03/02 01:44:44;;;;;;;15.13;8.97;;;2.30;99.90;;;;;;5169268;23;20154;-95
2023/03/02 01:46:52;;;;;;;17.53;9.13;;;2.40;99.90;;;;;;5169206;23;20157;-92
2023/03/02 01:49:03;;;;;;;20.97;9.50;;;2.20;99.90;;;;;;5169475;23;20198;-92
2023/03/02 01:51:17;;;;;;;14.57;8.60;;;2.10;99.90;;;;;;5170859;22;20167;-92
2023/03/02 01:53:21;;;;;;;17.50;8.20;;;2.20;99.90;;;;;;5198773;22;20263;-92
2023/03/02 01:55:28;;;;;;;18.53;9.53;;;2.40;99.90;;;;;;5202354;22;20147;-92
2023/03/02 01:57:33;;;;;;;17.83;7.90;;;2.40;99.90;;;;;;5203016;22;20177;-93
2023/03/02 01:59:37;;;;;;;17.63;8.63;;;2.30;99.90;;;;;;5202596;22;20185;-92
2023/03/02 02:01:41;;;;;;;16.63;8.80;;;2.20;99.90;;;;;;5177330;23;20187;-93
2023/03/02 02:03:49;;;;;;;15.07;7.80;;;2.10;99.90;;;;;;5200773;22;20146;-91
2023/03/02 02:06:03;;;;;;;18.93;8.63;;;2.00;99.90;;;;;;5200342;22;20154;-93
2023/03/02 02:08:03;;;;;;;17.77;9.37;;;1.80;99.90;;;;;;5176737;23;20158;-93
2023/03/02 02:10:05;;;;;;;17.73;8.30;;;1.80;99.90;;;;;;5177623;23;20143;-91
2023/03/02 02:12:11;;;;;;;16.33;8.77;;;1.80;99.90;;;;;;5176754;23;20606;-92
2023/03/02 02:14:12;;;;;;;15.13;8.17;;;1.80;99.90;;;;;;5178417;23;20226;-92
2023/03/02 02:16:13;;;;;;;15.20;8.43;;;1.80;99.90;;;;;;5177848;23;20151;-93
2023/03/02 02:18:14;;;;;;;15.43;8.70;;;1.80;99.90;;;;;;5202223;22;20178;-91
2023/03/02 02:20:34;;;;;;;13.73;8.20;;;1.80;99.90;;;;;;5175306;23;20197;-91
2023/03/02 02:22:36;;;;;;;16.43;8.30;;;1.80;99.90;;;;;;5178447;22;20166;-93
2023/03/02 02:24:54;;;;;;;17.63;8.60;;;1.80;99.90;;;;;;5200901;22;20160;-93
2023/03/02 02:26:56;;;;;;;13.87;8.03;;;1.80;99.90;;;;;;5178181;23;20155;-94
2023/03/02 02:29:02;;;;;;;14.10;8.30;;;1.80;99.90;;;;;;5195405;22;20154;-94
2023/03/02 02:31:25;;;;;;;18.07;8.13;;;1.80;99.90;;;;;;5201340;22;20178;-92
2023/03/02 02:33:27;;;;;;;14.53;7.83;;;1.80;99.90;;;;;;5204413;22;20197;-91
2023/03/02 02:35:29;;;;;;;16.13;8.00;;;1.90;99.90;;;;;;5202226;22;20153;-92
2023/03/02 02:37:39;;;;;;;20.03;8.47;;;2.00;99.90;;;;;;5195273;22;20200;-92
2023/03/02 02:39:44;;;;;;;16.33;8.30;;;2.20;99.90;;;;;;5194049;22;20184;-91
2023/03/02 02:41:48;;;;;;;17.83;8.33;;;2.20;99.90;;;;;;5199406;22;20428;-92
2023/03/02 02:43:49;;;;;;;14.60;8.30;;;2.10;99.90;;;;;;5172221;23;20147;-93
2023/03/02 02:45:53;;;;;;;17.50;8.17;;;2.20;99.90;;;;;;5173502;22;20155;-91
2023/03/02 02:47:56;;;;;;;16.87;8.40;;;2.10;99.90;;;;;;5175522;23;20635;-92
2023/03/02 02:49:57;;;;;;;16.17;7.47;;;2.10;99.90;;;;;;5204093;22;20154;-91
2023/03/02 02:52:00;;;;;;;17.77;8.37;;;2.00;99.90;;;;;;5195940;22;20158;-93
2023/03/02 02:54:03;;;;;;;18.10;8.57;;;1.90;99.90;;;;;;5193939;22;20154;-91
2023/03/02 02:56:10;;;;;;;16.33;8.67;;;1.90;99.90;;;;;;5169645;22;20161;-93
2023/03/02 02:58:35;;;;;;;16.63;8.67;;;1.90;99.90;;;;;;5193223;22;20153;-92
2023/03/02 03:00:37;;;;;;;22.23;8.87;;;1.80;99.90;;;;;;5193544;22;20178;-95
2023/03/02 03:02:43;;;;;;;17.13;8.57;;;1.80;99.90;;;;;;5194164;22;20209;-92
2023/03/02 03:04:45;;;;;;;17.57;8.40;;;1.60;99.90;;;;;;5168750;22;20158;-92
2023/03/02 03:07:18;;;;;;;13.40;8.50;;;1.60;99.90;;;;;;5168418;22;20207;-95
2023/03/02 03:09:19;;;;;;;15.10;8.30;;;1.70;99.90;;;;;;5193720;22;20158;-92
2023/03/02 03:11:28;;;;;;;16.37;8.33;;;1.60;99.90;;;;;;5168917;22;20514;-91
2023/03/02 03:13:29;;;;;;;16.10;7.97;;;1.70;99.90;;;;;;5168616;23;20186;-94
2023/03/02 03:15:30;;;;;;;16.70;8.27;;;1.60;99.90;;;;;;5168532;23;20151;-92
2023/03/02 03:17:31;;;;;;;16.83;8.47;;;1.50;99.90;;;;;;5168944;22;20234;-95
2023/03/02 03:19:35;;;;;;;15.37;8.20;;;1.50;99.90;;;;;;5219071;22;20149;-94
2023/03/02 03:21:36;;;;;;;19.27;8.80;;;1.40;99.90;;;;;;5193822;22;20232;-91
2023/03/02 03:23:37;;;;;;;15.37;7.60;;;1.40;99.90;;;;;;5168639;23;20213;-93
2023/03/02 03:25:39;;;;;;;17.97;8.23;;;1.30;99.90;;;;;;5168580;22;20147;-91
2023/03/02 03:27:42;;;;;;;15.03;8.33;;;1.30;99.90;;;;;;5168223;23;20605;-92
2023/03/02 03:29:47;;;;;;;13.63;8.50;;;1.30;99.90;;;;;;5168864;22;20161;-92
2023/03/02 03:31:51;;;;;;;16.47;9.07;;;1.20;99.90;;;;;;5168289;22;20221;-92
2023/03/02 03:33:54;;;;;;;16.73;8.30;;;1.20;99.90;;;;;;5194563;22;20194;-91
2023/03/02 03:35:55;;;;;;;15.23;8.57;;;1.20;99.90;;;;;;5193592;22;20513;-92
2023/03/02 03:37:58;;;;;;;17.30;8.50;;;1.20;99.90;;;;;;5168939;22;20153;-93
2023/03/02 03:39:59;;;;;;;15.67;7.80;;;1.30;99.90;;;;;;5168291;23;20147;-94
2023/03/02 03:42:00;;;;;;;17.90;8.37;;;1.50;99.90;;;;;;5168848;23;20253;-91
2023/03/02 03:44:02;;;;;;;18.80;8.17;;;1.60;99.90;;;;;;5168939;23;20226;-92
2023/03/02 03:46:06;;;;;;;20.23;8.20;;;1.70;99.90;;;;;;5168850;22;20180;-94
2023/03/02 03:48:07;;;;;;;13.53;7.60;;;1.80;99.90;;;;;;5168553;23;20234;-92
2023/03/02 03:50:08;;;;;;;18.03;8.93;;;1.70;99.90;;;;;;5168164;23;20151;-92
2023/03/02 03:52:10;;;;;;;15.37;7.80;;;1.70;99.90;;;;;;5168107;23;20162;-91
2023/03/02 03:54:10;;;;;;;13.90;7.57;;;1.70;99.90;;;;;;5193736;22;20699;-93
2023/03/02 03:56:14;;;;;;;16.10;8.13;;;1.50;99.90;;;;;;5168643;22;20170;-92
2023/03/02 03:58:15;;;;;;;19.73;8.30;;;1.40;99.90;;;;;;5168044;23;20147;-95
2023/03/02 04:00:17;;;;;;;16.53;8.00;;;1.20;99.90;;;;;;5168043;23;20179;-91
2023/03/02 04:02:30;;;;;;;16.43;7.67;;;1.20;99.90;;;;;;5193449;22;20150;-92
2023/03/02 04:04:34;;;;;;;17.30;7.90;;;1.00;99.90;;;;;;5168074;23;20155;-93
2023/03/02 04:06:39;;;;;;;19.33;8.37;;;0.90;99.90;;;;;;5193855;22;20157;-91
2023/03/02 04:08:40;;;;;;;16.80;7.43;;;1.00;99.90;;;;;;5193854;22;20250;-93
2023/03/02 04:10:41;;;;;;;16.47;8.20;;;1.00;99.90;;;;;;5168157;23;20193;-92
2023/03/02 04:12:42;;;;;;;16.10;8.20;;;1.10;99.90;;;;;;5168265;23;20192;-94
2023/03/02 04:14:44;;;;;;;16.60;8.47;;;1.10;99.90;;;;;;5193767;22;20153;-90
2023/03/02 04:16:46;;;;;;;14.70;8.27;;;1.10;99.90;;;;;;5142860;23;20159;-92
2023/03/02 04:18:47;;;;;;;13.93;7.67;;;1.10;99.90;;;;;;5168356;23;20245;-94
2023/03/02 04:20:47;;;;;;;17.50;8.60;;;1.20;99.90;;;;;;5193732;22;20162;-92
2023/03/02 04:22:52;;;;;;;18.67;8.90;;;1.20;99.90;;;;;;5168257;23;20226;-92
2023/03/02 04:24:53;;;;;;;13.17;8.20;;;1.30;99.90;;;;;;5168409;22;20197;-93
2023/03/02 04:26:54;;;;;;;16.60;8.70;;;1.40;99.90;;;;;;5168350;23;20674;-93
2023/03/02 04:28:55;;;;;;;16.53;8.13;;;1.30;99.90;;;;;;5168233;23;20161;-90
2023/03/02 04:30:56;;;;;;;15.03;7.97;;;1.20;99.90;;;;;;5193592;22;20170;-93
2023/03/02 04:32:57;;;;;;;14.80;7.90;;;1.00;99.90;;;;;;5168493;23;20187;-91
2023/03/02 04:34:59;;;;;;;14.33;7.60;;;1.00;99.90;;;;;;5168525;22;20501;-93
2023/03/02 04:37:02;;;;;;;17.33;7.80;;;0.90;99.90;;;;;;5168641;22;20167;-94
2023/03/02 04:39:05;;;;;;;14.33;7.97;;;0.90;99.90;;;;;;5168137;23;20158;-91
2023/03/02 04:41:05;;;;;;;16.67;8.20;;;0.90;99.90;;;;;;5193576;22;20761;-91
2023/03/02 04:43:06;;;;;;;17.87;7.97;;;0.90;99.90;;;;;;5168021;23;20147;-91
2023/03/02 04:45:08;;;;;;;23.37;8.63;;;0.80;99.90;;;;;;5167972;23;20574;-91
2023/03/02 04:47:09;;;;;;;13.53;8.23;;;0.70;99.90;;;;;;5192974;22;20150;-92
2023/03/02 04:49:11;;;;;;;16.50;8.67;;;0.70;99.90;;;;;;5193431;22;20605;-91
2023/03/02 04:51:22;;;;;;;16.53;8.20;;;0.70;99.90;;;;;;5193289;22;20237;-92
2023/03/02 04:53:23;;;;;;;14.23;7.50;;;0.70;99.90;;;;;;5194710;22;20190;-91
2023/03/02 04:55:26;;;;;;;14.93;8.30;;;0.70;99.90;;;;;;5169493;23;20198;-92
2023/03/02 04:57:26;;;;;;;16.50;7.93;;;0.70;99.90;;;;;;5169509;22;20189;-91
2023/03/02 04:59:28;;;;;;;18.33;8.13;;;0.80;99.90;;;;;;5194758;22;20645;-94
2023/03/02 05:01:29;;;;;;;15.03;8.17;;;0.80;99.90;;;;;;5194797;22;20178;-91
2023/03/02 05:03:30;;;;;;;14.30;8.30;;;0.80;99.90;;;;;;5194923;22;20146;-93
2023/03/02 05:05:31;;;;;;;16.13;8.07;;;0.90;99.90;;;;;;5169406;23;20151;-93
2023/03/02 05:07:32;;;;;;;14.37;7.90;;;1.00;99.90;;;;;;5169617;23;20159;-91
2023/03/02 05:09:33;;;;;;;17.33;8.20;;;1.00;99.90;;;;;;5195074;22;20240;-91
2023/03/02 05:11:34;;;;;;;18.80;7.57;;;1.00;99.90;;;;;;5169074;23;20633;-90
2023/03/02 05:13:35;;;;;;;16.33;8.07;;;0.90;99.90;;;;;;5169129;23;20194;-90
2023/03/02 05:15:38;;;;;;;15.53;8.27;;;0.90;99.90;;;;;;5169111;22;20589;-94
2023/03/02 05:17:39;;;;;;;17.60;8.37;;;0.90;99.90;;;;;;5169275;23;20155;-94
2023/03/02 05:19:41;;;;;;;14.77;8.30;;;0.90;99.90;;;;;;5194565;22;20678;-93
2023/03/02 05:21:42;;;;;;;21.67;8.77;;;0.80;99.90;;;;;;5169170;23;20170;-92
2023/03/02 05:23:43;;;;;;;17.47;8.03;;;0.70;99.90;;;;;;5169608;22;20182;-90
2023/03/02 05:25:44;;;;;;;18.70;8.13;;;0.70;99.90;;;;;;5194783;22;20233;-91
2023/03/02 05:27:45;;;;;;;19.73;8.50;;;0.60;99.90;;;;;;5169425;23;20147;-91
2023/03/02 05:29:45;;;;;;;16.90;8.10;;;0.60;99.90;;;;;;5169600;23;20494;-90
2023/03/02 05:31:47;;;;;;;15.77;7.57;;;0.50;99.90;;;;;;5168843;23;20170;-91
2023/03/02 05:33:48;;;;;;;14.73;7.87;;;0.60;99.90;;;;;;5169132;22;20337;-92
2023/03/02 05:35:49;;;;;;;15.53;6.90;;;0.60;99.90;;;;;;5169242;22;20173;-94
2023/03/02 05:37:50;;;;;;;16.57;8.03;;;0.50;99.90;;;;;;5169729;23;20195;-90
2023/03/02 05:39:51;;;;;;;15.67;7.80;;;0.50;99.90;;;;;;5169402;22;20182;-91
2023/03/02 05:41:52;;;;;;;18.47;8.80;;;0.50;99.90;;;;;;5168930;23;20240;-91
2023/03/02 05:43:53;;;;;;;15.20;8.20;;;0.50;99.90;;;;;;5169172;23;20522;-94
2023/03/02 05:45:59;;;;;;;17.70;8.13;;;0.50;99.90;;;;;;5168955;23;20617;-91
2023/03/02 05:48:00;;;;;;;15.73;8.23;;;0.50;99.90;;;;;;5169267;23;20485;-94
2023/03/02 05:50:01;;;;;;;14.97;8.83;;;0.50;99.90;;;;;;5194512;22;20150;-93
2023/03/02 05:52:01;;;;;;;19.10;8.53;;;0.50;99.90;;;;;;5168625;23;20262;-92
2023/03/02 05:54:02;;;;;;;15.97;7.10;;;0.50;99.90;;;;;;5168863;23;20159;-94
2023/03/02 05:56:03;;;;;;;19.17;8.27;;;0.40;99.90;;;;;;5169275;22;20158;-92
2023/03/02 05:58:13;;;;;;;16.57;7.80;;;0.40;99.90;;;;;;5194495;22;20158;-91
2023/03/02 06:00:17;;;;;;;12.90;7.23;;;0.40;99.90;;;;;;5194301;22;20170;-90
2023/03/02 06:02:17;;;;;;;17.07;7.53;;;0.40;99.90;;;;;;5194045;22;20205;-91
2023/03/02 06:04:18;;;;;;;15.43;7.80;;;0.50;99.90;;;;;;5193537;22;20146;-93
2023/03/02 06:06:19;;;;;;;16.47;8.00;;;0.60;99.90;;;;;;5194136;22;20597;-93
2023/03/02 06:08:20;;;;;;;14.93;7.90;;;0.70;99.90;;;;;;5194552;22;20154;-92
2023/03/02 06:10:22;;;;;;;15.77;8.13;;;0.70;99.90;;;;;;5168924;23;20209;-94
2023/03/02 06:12:23;;;;;;;15.33;7.97;;;0.70;99.90;;;;;;5169116;23;20190;-93
2023/03/02 06:14:23;;;;;;;16.03;8.60;;;0.50;99.90;;;;;;5194345;22;20232;-93
2023/03/02 06:16:30;;;;;;;15.20;8.13;;;0.50;99.90;;;;;;5169094;22;20459;-94
2023/03/02 06:18:31;;;;;;;16.83;8.47;;;0.50;99.90;;;;;;5168814;23;20591;-94
2023/03/02 06:20:34;;;;;;;18.17;7.53;;;0.50;99.90;;;;;;5168820;22;20190;-93
2023/03/02 06:22:44;;;;;;;15.50;8.07;;;0.50;99.90;;;;;;5193920;22;20146;-94
2023/03/02 06:24:45;;;;;;;18.57;8.93;;;0.40;99.90;;;;;;5220151;22;20153;-93
2023/03/02 06:26:46;;;;;;;17.00;8.33;;;0.50;99.90;;;;;;5193990;22;20221;-94
2023/03/02 06:28:46;;;;;;;16.87;8.70;;;0.50;99.90;;;;;;5168678;23;20151;-92
2023/03/02 06:30:51;;;;;;;14.77;8.57;;;0.40;99.90;;;;;;5168679;23;20654;-93
2023/03/02 06:32:51;;;;;;;18.13;8.53;;;0.50;99.90;;;;;;5168341;23;20630;-93
2023/03/02 06:34:52;;;;;;;16.43;8.00;;;0.50;99.90;;;;;;5168313;22;20226;-93
2023/03/02 06:36:54;;;;;;;13.17;7.63;;;0.40;99.90;;;;;;5168885;23;20748;-93
2023/03/02 06:38:54;;;;;;;17.13;9.37;;;0.40;99.90;;;;;;5169152;23;20490;-93
2023/03/02 06:40:55;;;;;;;16.13;8.43;;;0.50;99.90;;;;;;5168448;22;20258;-94
2023/03/02 06:42:59;;;;;;;17.43;8.90;;;0.50;99.90;;;;;;5169050;23;20560;-94
2023/03/02 06:44:59;;;;;;;21.07;9.77;;;0.50;99.90;;;;;;5194138;22;20176;-93
2023/03/02 06:47:00;;;;;;;21.67;9.40;;;0.60;99.90;;;;;;5168825;22;20150;-92
2023/03/02 06:49:07;;;;;;;14.47;8.80;;;0.70;99.90;;;;;;5169278;22;20216;-91
2023/03/02 06:51:08;;;;;;;20.87;8.80;;;1.00;99.90;;;;;;5193611;22;20216;-93
2023/03/02 06:53:09;;;;;;;16.40;8.63;;;1.10;99.90;;;;;;5168491;23;20194;-93
2023/03/02 06:55:13;;;;;;;15.63;8.70;;;1.30;99.90;;;;;;5169338;22;20246;-93
2023/03/02 06:57:13;;;;;;;17.83;8.50;;;1.50;99.90;;;;;;5168632;23;20147;-92
2023/03/02 06:59:14;;;;;;;15.30;8.73;;;1.70;99.90;;;;;;5168672;23;20229;-92
2023/03/02 07:01:19;;;;;;;19.57;8.93;;;2.00;99.90;;;;;;5193527;22;20166;-93
2023/03/02 07:03:21;;;;;;;16.50;7.90;;;2.10;99.90;;;;;;5168337;22;20237;-94
2023/03/02 07:05:23;;;;;;;15.90;8.77;;;2.20;99.90;;;;;;5168915;23;20174;-93
2023/03/02 07:07:30;;;;;;;17.07;8.43;;;2.40;99.90;;;;;;5168652;22;20178;-93
2023/03/02 07:09:36;;;;;;;14.53;7.67;;;2.50;99.90;;;;;;5193813;22;20150;-93
2023/03/02 07:11:37;;;;;;;17.07;8.73;;;2.70;99.90;;;;;;5193887;22;20173;-94
2023/03/02 07:13:39;;;;;;;17.43;8.63;;;2.90;99.90;;;;;;5193714;22;20264;-93
2023/03/02 07:15:40;;;;;;;15.83;7.97;;;2.90;99.90;;;;;;5168493;22;20147;-93
2023/03/02 07:17:43;;;;;;;14.07;8.23;;;2.90;99.90;;;;;;5193953;22;20596;-93
2023/03/02 07:19:52;;;;;;;22.93;9.03;;;3.10;99.90;;;;;;5168953;22;20170;-94
2023/03/02 07:21:53;;;;;;;15.00;8.13;;;3.30;99.90;;;;;;5168804;22;20233;-93
2023/03/02 07:23:54;;;;;;;19.03;9.70;;;3.40;99.90;;;;;;5194073;22;20161;-93
2023/03/02 07:25:55;;;;;;;15.53;9.17;;;3.40;99.90;;;;;;5168210;23;20578;-94
2023/03/02 07:27:56;;;;;;;17.53;8.97;;;3.40;99.90;;;;;;5168840;23;20151;-94
2023/03/02 07:29:57;;;;;;;16.37;8.90;;;3.30;99.90;;;;;;5168485;23;20182;-93
2023/03/02 07:31:58;;;;;;;19.00;9.80;;;3.10;99.90;;;;;;5193539;22;20620;-92
2023/03/02 07:33:59;;;;;;;17.57;9.20;;;2.90;99.90;;;;;;5168258;23;20724;-92
2023/03/02 07:36:00;;;;;;;16.87;9.33;;;2.80;99.90;;;;;;5193732;22;20174;-92
2023/03/02 07:38:01;;;;;;;21.67;9.83;;;2.90;99.90;;;;;;5168301;23;20189;-93
2023/03/02 07:40:03;;;;;;;18.47;9.60;;;2.80;99.90;;;;;;5168127;22;20151;-92
2023/03/02 07:42:07;;;;;;;19.77;10.20;;;2.70;99.90;;;;;;5168316;23;20604;-94
2023/03/02 07:44:08;;;;;;;19.30;9.23;;;2.60;99.90;;;;;;5168153;23;20213;-92
2023/03/02 07:46:09;;;;;;;22.97;10.13;;;2.70;99.90;;;;;;5168105;23;20528;-93
2023/03/02 07:48:10;;;;;;;22.80;10.57;;;2.80;99.90;;;;;;5193485;22;20328;-93
2023/03/02 07:50:11;;;;;;;19.37;10.60;;;2.80;99.90;;;;;;5167884;23;20175;-92
2023/03/02 07:52:12;;;;;;;27.20;10.30;;;2.80;99.90;;;;;;5167919;22;20147;-91
2023/03/02 07:54:13;;;;;;;21.20;11.07;;;2.80;99.90;;;;;;5168129;22;20217;-92
2023/03/02 07:56:13;;;;;;;23.80;11.50;;;2.70;99.90;;;;;;5171706;23;20151;-91
2023/03/02 07:58:14;;;;;;;22.20;10.30;;;2.70;99.90;;;;;;5175320;23;20159;-92
2023/03/02 08:00:16;;;;;;;20.10;10.10;;;2.70;99.90;;;;;;5209694;22;20154;-92
2023/03/02 08:02:19;;;;;;;16.43;8.53;;;2.60;99.90;;;;;;5190041;22;20502;-93
2023/03/02 08:04:20;;;;;;;20.43;9.80;;;3.00;99.90;;;;;;5169976;23;20151;-92
2023/03/02 08:06:20;;;;;;;23.67;10.47;;;3.10;99.90;;;;;;5194221;22;20244;-92
2023/03/02 08:08:21;;;;;;;21.50;11.60;;;3.20;99.90;;;;;;5168422;23;20155;-93
2023/03/02 08:10:23;;;;;;;19.80;10.73;;;3.20;99.90;;;;;;5193397;22;20209;-93
2023/03/02 08:12:24;;;;;;;32.53;13.13;;;3.10;99.90;;;;;;5168036;23;20502;-93
2023/03/02 08:14:25;;;;;;;22.87;9.97;;;2.90;99.90;;;;;;5168376;22;20155;-92
2023/03/02 08:16:26;;;;;;;21.93;12.27;;;3.00;99.90;;;;;;5167871;23;20166;-91
2023/03/02 08:18:28;;;;;;;21.33;11.80;;;3.00;99.90;;;;;;5193624;22;20177;-93
2023/03/02 08:20:28;;;;;;;23.03;12.00;;;3.10;99.90;;;;;;5193825;22;20257;-92
2023/03/02 08:22:29;;;;;;;22.10;11.00;;;3.50;99.90;;;;;;5167952;23;20163;-94
2023/03/02 08:24:31;;;;;;;19.57;9.53;;;3.90;99.90;;;;;;5168995;23;20147;-93
2023/03/02 08:26:31;;;;;;;21.27;9.60;;;4.00;99.90;;;;;;5168016;22;20189;-92
2023/03/02 08:28:33;;;;;;;20.00;9.43;;;4.30;99.90;;;;;;5169860;23;20148;-93
2023/03/02 08:30:34;;;;;;;21.97;9.67;;;4.50;99.90;;;;;;5144476;23;20175;-91
2023/03/02 08:32:35;;;;;;;20.03;9.63;;;4.90;99.90;;;;;;5169808;23;20194;-93
2023/03/02 08:34:35;;;;;;;17.80;10.20;;;4.90;99.90;;;;;;5169578;23;20234;-93
2023/03/02 08:36:37;;;;;;;21.40;10.93;;;5.00;99.90;;;;;;5194640;22;20162;-92
2023/03/02 08:38:38;;;;;;;17.10;9.87;;;5.20;99.90;;;;;;5169577;23;20155;-91
2023/03/02 08:40:39;;;;;;;19.60;10.77;;;5.20;99.90;;;;;;5194808;22;20178;-90
2023/03/02 08:42:40;;;;;;;25.93;11.20;;;4.90;99.90;;;;;;5169704;23;20165;-91
2023/03/02 08:44:41;;;;;;;21.73;10.67;;;4.60;99.90;;;;;;5194718;22;20146;-90
2023/03/02 08:46:42;;;;;;;27.13;11.37;;;4.80;99.90;;;;;;5169434;23;20150;-90
2023/03/02 08:48:43;;;;;;;26.57;11.40;;;4.80;99.90;;;;;;5169730;22;20158;-91
2023/03/02 08:50:52;;;;;;;19.90;9.70;;;4.90;99.90;;;;;;5169476;23;20170;-91
2023/03/02 08:52:53;;;;;;;18.33;9.47;;;5.20;99.90;;;;;;5194815;22;20202;-91
2023/03/02 08:54:53;;;;;;;18.93;10.47;;;5.50;99.90;;;;;;5169709;23;20155;-91
2023/03/02 08:56:54;;;;;;;18.20;10.17;;;5.90;99.90;;;;;;5169605;22;20552;-90
2023/03/02 08:58:58;;;;;;;19.50;10.87;;;6.00;99.90;;;;;;5195292;22;20185;-92
2023/03/02 09:00:59;;;;;;;22.97;11.07;;;6.00;99.90;;;;;;5194636;22;20189;-91
2023/03/02 09:03:01;;;;;;;24.97;10.93;;;6.00;99.90;;;;;;5169505;22;20155;-91
2023/03/02 09:05:02;;;;;;;19.90;11.23;;;6.00;99.90;;;;;;5169593;23;20489;-91
2023/03/02 09:07:03;;;;;;;18.13;11.00;;;5.90;99.90;;;;;;5169487;23;20151;-92
2023/03/02 09:09:05;;;;;;;18.10;10.67;;;5.70;99.90;;;;;;5169613;23;20155;-93
2023/03/02 09:11:06;;;;;;;18.87;10.87;;;5.40;99.90;;;;;;5169418;23;20225;-93
2023/03/02 09:13:08;;;;;;;19.67;9.80;;;5.30;99.90;;;;;;5169216;23;20637;-93
2023/03/02 09:15:09;;;;;;;20.20;11.57;;;5.40;99.90;;;;;;5169272;23;20237;-90
2023/03/02 09:17:11;;;;;;;19.47;11.23;;;5.60;99.90;;;;;;5169183;22;20238;-91
2023/03/02 09:19:13;;;;;;;22.20;12.00;;;5.80;99.90;;;;;;5169026;23;20175;-92
2023/03/02 09:21:14;;;;;;;22.70;11.73;;;5.80;99.90;;;;;;5194499;22;20182;-91
2023/03/02 09:23:15;;;;;;;20.53;11.30;;;5.70;99.90;;;;;;5194724;22;20190;-91
2023/03/02 09:25:21;;;;;;;21.40;11.90;;;5.40;99.90;;;;;;5194528;22;20158;-92
2023/03/02 09:27:22;;;;;;;23.23;12.30;;;5.30;99.90;;;;;;5169133;23;20314;-91
2023/03/02 09:29:22;;;;;;;19.83;11.53;;;5.40;99.90;;;;;;5194781;22;20150;-90
2023/03/02 09:31:23;;;;;;;19.63;12.13;;;5.40;99.90;;;;;;5168983;23;20167;-92
2023/03/02 09:33:24;;;;;;;22.40;11.67;;;5.50;99.90;;;;;;5167536;22;20194;-90
2023/03/02 09:35:25;;;;;;;24.63;11.63;;;5.60;99.90;;;;;;5144238;23;20155;-87
2023/03/02 09:37:29;;;;;;;24.87;11.47;;;5.80;99.90;;;;;;5143696;23;20190;-87
2023/03/02 09:39:30;;;;;;;23.27;11.73;;;5.90;99.90;;;;;;5143120;23;20152;-88
2023/03/02 09:41:54;;;;;;;21.60;11.83;;;5.90;99.90;;;;;;5168567;23;20651;-87
2023/03/02 09:43:55;;;;;;;24.60;12.83;;;6.00;99.90;;;;;;5169120;23;20229;-92
2023/03/02 09:46:18;;;;;;;21.77;11.93;;;6.10;99.90;;;;;;5144042;23;20598;-90
2023/03/02 09:48:39;;;;;;;24.20;12.00;;;6.20;99.90;;;;;;5143904;23;20155;-93
2023/03/02 09:50:52;;;;;;;25.97;11.80;;;6.00;99.90;;;;;;5143769;23;20258;-92
2023/03/02 09:53:19;;;;;;;20.83;11.07;;;6.40;99.90;;;;;;5168869;23;20217;-88
2023/03/02 09:55:26;;;;;;;22.33;12.73;;;6.90;99.90;;;;;;5132127;23;20246;-89
2023/03/02 09:57:33;;;;;;;28.20;13.63;;;6.90;99.90;;;;;;5168907;22;20159;-90
2023/03/02 09:59:47;;;;;;;23.00;13.10;;;6.60;99.90;;;;;;5143887;23;20162;-88
2023/03/02 10:02:02;;;;;;;28.20;13.20;;;6.30;99.90;;;;;;5143769;23;20175;-87
2023/03/02 10:04:18;;;;;;;26.60;14.43;;;6.00;99.90;;;;;;5168848;23;20554;-88
2023/03/02 10:06:19;;;;;;;21.27;12.10;;;5.60;99.90;;;;;;5168574;23;20166;-87
2023/03/02 10:08:28;;;;;;;28.37;14.50;;;5.40;99.90;;;;;;5168965;22;20490;-89
2023/03/02 10:10:31;;;;;;;31.90;12.93;;;5.10;99.90;;;;;;5168668;23;20177;-88
2023/03/02 10:12:44;;;;;;;22.97;12.47;;;5.10;99.90;;;;;;5144342;23;20187;-89
2023/03/02 10:15:08;;;;;;;24.93;12.70;;;5.20;99.90;;;;;;5143828;23;20151;-92
2023/03/02 10:17:46;;;;;;;28.60;14.67;;;5.40;99.90;;;;;;5143673;23;20160;-90
2023/03/02 10:19:53;;;;;;;27.30;12.80;;;5.50;99.90;;;;;;5143451;23;20234;-90
2023/03/02 10:22:26;;;;;;;25.23;12.43;;;5.50;99.90;;;;;;5169167;23;20158;-88
2023/03/02 10:24:48;;;;;;;26.13;13.53;;;5.40;99.90;;;;;;5143790;23;20155;-88
2023/03/02 10:27:07;;;;;;;27.63;13.67;;;5.40;99.90;;;;;;5168779;23;20151;-90
2023/03/02 10:29:34;;;;;;;28.17;15.53;;;5.50;99.90;;;;;;5194191;22;20153;-88
2023/03/02 10:31:38;;;;;;;29.00;15.30;;;5.50;99.90;;;;;;5168419;23;20185;-88
2023/03/02 10:33:40;;;;;;;25.30;14.40;;;5.60;99.90;;;;;;5168669;23;20660;-88
2023/03/02 10:35:47;;;;;;;29.13;16.03;;;5.60;99.90;;;;;;5168612;22;20175;-90
2023/03/02 10:37:56;;;;;;;31.73;16.37;;;5.50;99.90;;;;;;5168685;23;20166;-88
2023/03/02 10:39:56;;;;;;;32.07;15.57;;;5.50;99.90;;;;;;5195138;22;20138;-89